Time;durP1;ratioP1;P1;durP2;ratioP2;P2;SDS_P1;SDS_P2;PMS_P1;PMS_P2;Temp;Humidity;BMP_temperature;BMP_pressure;BME280_temperature;BME280_humidity;BME280_pressure;Samples;Min_cycle;Max_cycle;Signal;HPM_P1;HPM_P2
2022/10/23 00:01:43;;;;;;;27.55;14.32;;;;;;;10.07;100.00;101487.09;6220153;23;20017;-79
2022/10/23 00:04:16;;;;;;;20.67;12.95;;;;;;;10.05;100.00;101473.44;6220502;23;20456;-79
2022/10/23 00:06:43;;;;;;;23.65;14.52;;;;;;;10.01;100.00;101481.53;6219543;23;20076;-79
2022/10/23 00:09:12;;;;;;;26.02;15.38;;;;;;;9.99;100.00;101477.81;6220715;23;20092;-79
2022/10/23 00:11:40;;;;;;;18.75;14.15;;;;;;;9.96;100.00;101473.31;6220021;23;20017;-79
2022/10/23 00:14:08;;;;;;;26.92;14.10;;;;;;;9.92;100.00;101480.63;6220637;23;20021;-79
2022/10/23 00:16:35;;;;;;;21.05;11.98;;;;;;;9.89;100.00;101484.88;6220155;23;20100;-79
2022/10/23 00:19:02;;;;;;;20.80;11.88;;;;;;;9.87;100.00;101486.44;6220537;23;20041;-79
2022/10/23 00:21:28;;;;;;;15.25;11.02;;;;;;;9.84;100.00;101495.25;6219670;23;20097;-79
2022/10/23 00:23:55;;;;;;;19.58;10.90;;;;;;;9.82;100.00;101486.94;6220384;23;20017;-80
2022/10/23 00:26:21;;;;;;;15.88;10.50;;;;;;;9.78;100.00;101491.59;6220115;23;20157;-80
2022/10/23 00:28:50;;;;;;;18.67;10.45;;;;;;;9.76;100.00;101488.59;6220374;23;20483;-79
2022/10/23 00:31:18;;;;;;;16.02;10.30;;;;;;;9.74;100.00;101482.94;6193511;23;20017;-79
2022/10/23 00:33:45;;;;;;;21.65;11.48;;;;;;;9.73;100.00;101482.19;6193242;23;20105;-79
2022/10/23 00:36:13;;;;;;;16.27;10.10;;;;;;;9.74;100.00;101482.94;6219803;23;20048;-79
2022/10/23 00:38:42;;;;;;;16.10;10.63;;;;;;;9.73;100.00;101484.09;6220151;23;20013;-79
2022/10/23 00:41:15;;;;;;;16.65;10.18;;;;;;;9.73;100.00;101468.16;6220326;23;20052;-79
2022/10/23 00:43:58;;;;;;;12.00;9.18;;;;;;;9.72;100.00;101469.31;6219911;23;20055;-80
2022/10/23 00:46:25;;;;;;;13.27;10.00;;;;;;;9.70;100.00;101469.72;6187949;23;20143;-80
2022/10/23 00:48:52;;;;;;;13.93;9.85;;;;;;;9.69;100.00;101462.91;6190307;23;20041;-80
2022/10/23 00:51:18;;;;;;;19.10;9.50;;;;;;;9.69;100.00;101462.91;6189299;23;20014;-80
2022/10/23 00:53:50;;;;;;;22.65;10.13;;;;;;;9.68;100.00;101461.44;6190000;23;20112;-79
2022/10/23 00:56:40;;;;;;;14.80;9.27;;;;;;;9.67;100.00;101466.00;6189862;23;20025;-80
2022/10/23 00:59:07;;;;;;;11.77;9.18;;;;;;;9.64;100.00;101468.72;6188664;23;20108;-79
2022/10/23 01:01:33;;;;;;;17.15;8.93;;;;;;;9.63;100.00;101460.00;6189798;23;20089;-79
2022/10/23 01:04:02;;;;;;;19.27;8.68;;;;;;;9.64;100.00;101472.13;6187634;23;20017;-79
2022/10/23 01:06:44;;;;;;;9.48;8.20;;;;;;;9.63;100.00;101465.31;6186105;23;20021;-79
2022/10/23 01:09:17;;;;;;;11.05;8.55;;;;;;;9.62;100.00;101466.47;6188152;23;20022;-80
2022/10/23 01:12:01;;;;;;;14.15;8.05;;;;;;;9.61;100.00;101467.66;6189038;23;20048;-79
2022/10/23 01:14:42;;;;;;;8.50;7.60;;;;;;;9.59;100.00;101471.91;6187950;23;20037;-80
2022/10/23 01:17:36;;;;;;;12.02;7.70;;;;;;;9.59;100.00;101470.00;6188415;23;20017;-80
2022/10/23 01:20:38;;;;;;;16.58;8.50;;;;;;;9.54;100.00;101462.50;6172584;23;20028;-80
2022/10/23 01:23:09;;;;;;;13.60;7.80;;;;;;;9.52;100.00;101450.81;6190022;23;20037;-80
2022/10/23 01:25:56;;;;;;;8.30;7.47;;;;;;;9.52;100.00;101461.44;6187513;23;20026;-80
2022/10/23 01:28:34;;;;;;;14.30;7.63;;;;;;;9.51;100.00;101455.38;6188086;23;20024;-80
2022/10/23 01:31:07;;;;;;;14.25;7.78;;;;;;;9.48;100.00;101456.19;6188515;23;20060;-80
2022/10/23 01:33:39;;;;;;;10.88;7.53;;;;;;;9.48;100.00;101453.53;6188781;23;20061;-79
2022/10/23 01:36:13;;;;;;;8.45;7.65;;;;;;;9.49;100.00;101454.28;6189858;23;20017;-80
2022/10/23 01:38:53;;;;;;;10.75;7.93;;;;;;;9.47;100.00;101448.63;6187723;23;20147;-80
2022/10/23 01:41:35;;;;;;;11.30;7.85;;;;;;;9.47;100.00;101448.63;6187818;23;20024;-79
2022/10/23 01:44:29;;;;;;;8.80;7.80;;;;;;;9.47;100.00;101443.31;6188028;23;20021;-80
2022/10/23 01:46:56;;;;;;;10.63;7.45;;;;;;;9.45;100.00;101446.38;6174133;23;20025;-80
2022/10/23 01:49:24;;;;;;;12.25;7.55;;;;;;;9.43;100.00;101437.34;6191921;23;20104;-80
2022/10/23 01:51:59;;;;;;;15.88;7.85;;;;;;;9.41;100.00;101435.09;6192754;23;20403;-80
2022/10/23 01:54:30;;;;;;;11.73;7.40;;;;;;;9.35;100.00;101442.06;6192322;23;20080;-79
2022/10/23 01:56:57;;;;;;;12.32;7.05;;;;;;;9.30;100.00;101435.31;6219879;23;20021;-80
2022/10/23 01:59:34;;;;;;;8.10;6.97;;;;;;;9.30;100.00;101427.34;6192136;23;20455;-80
2022/10/23 02:02:02;;;;;;;9.63;6.80;;;;;;;9.29;100.00;101433.06;6193108;23;20024;-79
2022/10/23 02:04:39;;;;;;;16.08;7.50;;;;;;;9.24;100.00;101418.38;6218439;23;20072;-80
2022/10/23 02:07:06;;;;;;;8.15;6.85;;;;;;;9.21;100.00;101407.81;6192819;23;20056;-79
2022/10/23 02:09:33;;;;;;;7.70;6.70;;;;;;;9.22;100.00;101411.97;6192406;23;20149;-79
2022/10/23 02:12:04;;;;;;;9.25;7.18;;;;;;;9.22;100.00;101410.06;6192573;23;20017;-79
2022/10/23 02:14:52;;;;;;;10.98;7.10;;;;;;;9.21;100.00;101405.91;6219216;23;20423;-79
2022/10/23 02:17:37;;;;;;;9.25;7.20;;;;;;;9.19;100.00;101402.94;6192818;23;20032;-79
2022/10/23 02:20:14;;;;;;;12.05;7.43;;;;;;;9.17;100.00;101409.81;6193949;23;20017;-79
2022/10/23 02:23:04;;;;;;;9.30;7.10;;;;;;;9.10;100.00;101400.09;6193893;23;20443;-79
2022/10/23 02:25:43;;;;;;;6.97;6.05;;;;;;;9.11;100.00;101398.94;6159440;23;20016;-79
2022/10/23 02:28:17;;;;;;;11.55;6.95;;;;;;;9.13;100.00;101393.22;6194978;23;20527;-79
2022/10/23 02:30:48;;;;;;;8.65;6.93;;;;;;;9.11;100.00;101384.91;6194377;23;20112;-78
2022/10/23 02:33:16;;;;;;;9.02;6.57;;;;;;;9.06;100.00;101382.75;6220537;23;20017;-79
2022/10/23 02:35:45;;;;;;;7.65;6.68;;;;;;;9.06;100.00;101375.53;6193499;23;20395;-79
2022/10/23 02:38:41;;;;;;;7.10;6.50;;;;;;;9.06;100.00;101372.88;6194018;23;20025;-78
2022/10/23 02:41:28;;;;;;;10.27;6.07;;;;;;;9.05;100.00;101371.38;6221085;23;20023;-79
2022/10/23 02:44:14;;;;;;;10.50;6.60;;;;;;;9.01;100.00;101371.44;6220998;23;20188;-79
2022/10/23 02:46:46;;;;;;;9.55;6.88;;;;;;;9.02;100.00;101380.16;6193375;23;20017;-79
2022/10/23 02:49:16;;;;;;;8.15;7.13;;;;;;;9.00;100.00;101377.16;6193949;23;20024;-79
2022/10/23 02:52:12;;;;;;;13.13;6.88;;;;;;;9.00;100.00;101377.91;6193863;23;20481;-79
2022/10/23 02:54:56;;;;;;;7.45;6.47;;;;;;;8.99;100.00;101371.09;6193691;23;20439;-79
2022/10/23 02:57:34;;;;;;;7.30;6.57;;;;;;;8.99;100.00;101375.69;6193908;23;20446;-79
2022/10/23 03:00:12;;;;;;;7.60;6.80;;;;;;;8.97;100.00;101376.09;6194142;23;20092;-79
2022/10/23 03:02:50;;;;;;;14.35;7.40;;;;;;;8.97;100.00;101372.69;6169019;23;20072;-79
2022/10/23 03:05:21;;;;;;;9.90;6.63;;;;;;;8.97;100.00;101359.41;6194259;23;20021;-79
2022/10/23 03:07:48;;;;;;;11.88;7.28;;;;;;;8.95;100.00;101361.72;6194289;23;20447;-79
2022/10/23 03:10:16;;;;;;;15.85;7.15;;;;;;;8.89;100.00;101358.06;6194061;23;20021;-80
2022/10/23 03:12:43;;;;;;;12.10;7.60;;;;;;;8.89;100.00;101353.50;6220512;23;20041;-79
2022/10/23 03:15:11;;;;;;;10.75;6.65;;;;;;;8.89;100.00;101348.19;6220346;23;20024;-79
2022/10/23 03:17:40;;;;;;;9.10;6.53;;;;;;;8.86;100.00;101350.91;6193396;23;20013;-79
2022/10/23 03:20:08;;;;;;;15.75;7.63;;;;;;;8.85;100.00;101350.16;6193939;23;20486;-79
2022/10/23 03:22:34;;;;;;;11.25;6.53;;;;;;;8.86;100.00;101340.28;6193478;23;20017;-79
2022/10/23 03:25:01;;;;;;;11.15;6.47;;;;;;;8.87;100.00;101341.78;6194031;23;20455;-79
2022/10/23 03:27:30;;;;;;;14.25;6.47;;;;;;;8.88;100.00;101341.38;6193021;23;20518;-79
2022/10/23 03:30:01;;;;;;;9.70;6.57;;;;;;;8.88;100.00;101340.63;6219993;23;20025;-79
2022/10/23 03:32:28;;;;;;;7.07;6.38;;;;;;;8.87;100.00;101342.53;6194367;23;20020;-79
2022/10/23 03:34:55;;;;;;;17.00;7.45;;;;;;;8.88;100.00;101337.97;6220644;23;20052;-79
2022/10/23 03:37:22;;;;;;;15.32;6.80;;;;;;;8.88;100.00;101336.06;6193329;23;20075;-79
2022/10/23 03:39:49;;;;;;;8.52;6.65;;;;;;;8.88;100.00;101328.09;6193682;23;20570;-79
2022/10/23 03:42:16;;;;;;;9.40;6.80;;;;;;;8.89;100.00;101326.19;6220775;23;20036;-78
2022/10/23 03:44:42;;;;;;;13.65;6.50;;;;;;;8.87;100.00;101317.91;6192621;23;20021;-79
2022/10/23 03:47:10;;;;;;;9.38;6.50;;;;;;;8.86;100.00;101322.47;6220661;23;20052;-78
2022/10/23 03:49:38;;;;;;;8.90;6.88;;;;;;;8.86;100.00;101319.06;6193495;23;20049;-80
2022/10/23 03:52:06;;;;;;;11.68;7.15;;;;;;;8.85;100.00;101320.22;6193602;23;20522;-79
2022/10/23 03:54:34;;;;;;;11.15;6.00;;;;;;;8.85;100.00;101312.25;6193144;23;20079;-79
2022/10/23 03:57:01;;;;;;;7.20;6.20;;;;;;;8.85;100.00;101305.03;6193529;23;20516;-79
2022/10/23 03:59:28;;;;;;;10.32;6.20;;;;;;;8.85;100.00;101297.06;6192711;23;20076;-79
2022/10/23 04:01:54;;;;;;;7.22;6.50;;;;;;;8.85;100.00;101299.72;6193848;23;20056;-79
2022/10/23 04:04:23;;;;;;;7.45;6.13;;;;;;;8.85;100.00;101293.66;6193128;23;20071;-78
2022/10/23 04:06:50;;;;;;;10.75;6.22;;;;;;;8.84;100.00;101281.56;6220834;23;20037;-78
2022/10/23 04:09:18;;;;;;;11.38;6.28;;;;;;;8.85;100.00;101288.34;6193213;23;20025;-79
2022/10/23 04:11:45;;;;;;;10.18;7.20;;;;;;;8.88;100.00;101285.63;6193611;23;20028;-79
2022/10/23 04:14:12;;;;;;;14.57;7.05;;;;;;;8.95;100.00;101282.06;6219865;23;20021;-78
2022/10/23 04:16:39;;;;;;;11.32;6.35;;;;;;;8.97;100.00;101271.78;6193385;23;20017;-78
2022/10/23 04:19:05;;;;;;;13.43;7.30;;;;;;;8.99;100.00;101277.41;6220460;23;20100;-78
2022/10/23 04:21:32;;;;;;;9.05;6.55;;;;;;;8.99;100.00;101264.88;6220185;23;20013;-78
2022/10/23 04:23:59;;;;;;;8.02;6.43;;;;;;;9.01;100.00;101267.88;6193239;23;20017;-79
2022/10/23 04:26:27;;;;;;;7.40;6.35;;;;;;;9.01;100.00;101262.56;6192943;23;20096;-79
2022/10/23 04:28:53;;;;;;;12.55;6.80;;;;;;;9.00;100.00;101263.72;6192810;23;20067;-79
2022/10/23 04:31:20;;;;;;;7.75;5.88;;;;;;;9.00;100.00;101261.06;6193208;23;20013;-79
2022/10/23 04:33:47;;;;;;;10.63;6.90;;;;;;;9.00;100.00;101261.06;6220321;23;20052;-78
2022/10/23 04:36:29;;;;;;;7.30;6.50;;;;;;;9.00;100.00;101255.75;6192687;23;20020;-78
2022/10/23 04:39:03;;;;;;;8.43;6.03;;;;;;;9.02;100.00;101255.34;6192840;23;20505;-78
2022/10/23 04:41:29;;;;;;;8.48;6.20;;;;;;;9.02;100.00;101252.69;6193039;23;20080;-78
2022/10/23 04:43:56;;;;;;;6.93;6.00;;;;;;;9.02;100.00;101247.38;6193019;23;20025;-79
2022/10/23 04:46:22;;;;;;;7.88;6.78;;;;;;;9.01;100.00;101243.22;6192974;23;20421;-79
2022/10/23 04:48:49;;;;;;;6.97;6.10;;;;;;;9.02;100.00;101242.06;6193409;23;20021;-78
2022/10/23 04:51:25;;;;;;;8.88;6.00;;;;;;;9.03;100.00;101239.00;6193257;23;20017;-78
2022/10/23 04:54:10;;;;;;;7.93;6.00;;;;;;;9.04;100.00;101245.06;6220415;23;20038;-79
2022/10/23 04:56:39;;;;;;;11.32;5.88;;;;;;;9.06;100.00;101242.72;6219381;23;21098;-78
2022/10/23 04:59:10;;;;;;;7.50;5.90;;;;;;;9.08;100.00;101235.09;6193206;23;20018;-78
2022/10/23 05:01:38;;;;;;;10.63;5.95;;;;;;;9.08;100.00;101237.75;6192905;23;20102;-78
2022/10/23 05:04:06;;;;;;;7.95;6.32;;;;;;;9.10;100.00;101238.09;6193039;23;20024;-78
2022/10/23 05:06:43;;;;;;;6.70;5.93;;;;;;;9.11;100.00;101231.59;6192892;23;20446;-79
2022/10/23 05:09:15;;;;;;;10.85;6.15;;;;;;;9.11;100.00;101233.53;6193633;23;20021;-79
2022/10/23 05:11:53;;;;;;;7.20;6.28;;;;;;;9.13;100.00;101231.19;6193264;23;20021;-79
2022/10/23 05:14:19;;;;;;;8.55;5.97;;;;;;;9.13;100.00;101226.63;6192901;23;20083;-78
2022/10/23 05:16:50;;;;;;;8.52;6.07;;;;;;;9.15;100.00;101239.50;6193202;23;20072;-79
2022/10/23 05:19:25;;;;;;;10.65;6.18;;;;;;;9.15;100.00;101229.63;6192983;23;20080;-78
2022/10/23 05:21:54;;;;;;;14.80;6.43;;;;;;;9.15;100.00;101229.63;6193418;23;20017;-78
2022/10/23 05:24:25;;;;;;;8.88;5.93;;;;;;;9.17;100.00;101237.16;6192776;23;20075;-79
2022/10/23 05:26:56;;;;;;;10.75;6.32;;;;;;;9.20;100.00;101231.00;6192629;23;20072;-79
2022/10/23 05:29:23;;;;;;;8.77;6.18;;;;;;;9.24;100.00;101234.31;6219688;23;20510;-78
2022/10/23 05:31:55;;;;;;;6.72;6.10;;;;;;;9.26;100.00;101235.38;6192939;23;20096;-79
2022/10/23 05:34:26;;;;;;;7.03;5.90;;;;;;;9.30;100.00;101238.72;6192564;23;20021;-78
2022/10/23 05:36:53;;;;;;;6.63;6.03;;;;;;;9.33;100.00;101226.50;6192924;23;20041;-78
2022/10/23 05:39:22;;;;;;;9.00;5.95;;;;;;;9.36;100.00;101226.41;6192415;23;20021;-79
2022/10/23 05:41:51;;;;;;;8.02;6.57;;;;;;;9.43;100.00;101222.81;6218878;23;20343;-78
2022/10/23 05:44:21;;;;;;;9.52;7.25;;;;;;;9.49;100.00;101231.03;6192529;23;20024;-78
2022/10/23 05:47:08;;;;;;;8.40;6.53;;;;;;;9.51;100.00;101226.06;6196759;23;20052;-78
2022/10/23 05:49:52;;;;;;;7.85;6.38;;;;;;;9.52;100.00;101222.97;6192856;23;20021;-79
2022/10/23 05:52:46;;;;;;;9.98;6.20;;;;;;;9.53;100.00;101221.81;6193747;23;20698;-79
2022/10/23 05:55:41;;;;;;;6.95;6.05;;;;;;;9.57;100.00;101217.16;6199711;23;20032;-78
2022/10/23 05:58:26;;;;;;;7.18;6.10;;;;;;;9.59;100.00;101216.72;6221078;23;20021;-79
2022/10/23 06:01:03;;;;;;;9.43;6.07;;;;;;;9.60;100.00;101207.56;6194030;23;20028;-79
2022/10/23 06:03:50;;;;;;;6.82;6.15;;;;;;;9.62;100.00;101205.22;6221183;23;20021;-79
2022/10/23 06:06:18;;;;;;;8.65;6.40;;;;;;;9.62;100.00;101205.22;6193545;23;20407;-80
2022/10/23 06:08:47;;;;;;;6.90;6.20;;;;;;;9.62;100.00;101205.22;6193485;23;20021;-79
2022/10/23 06:11:15;;;;;;;13.38;6.53;;;;;;;9.62;100.00;101213.94;6221383;23;20021;-79
2022/10/23 06:13:50;;;;;;;12.75;6.13;;;;;;;9.63;100.00;101198.75;6193931;23;20438;-79
2022/10/23 06:16:21;;;;;;;11.30;6.22;;;;;;;9.64;100.00;101197.59;6193617;23;20021;-78
2022/10/23 06:18:48;;;;;;;7.00;6.35;;;;;;;9.65;100.00;101191.09;6220935;23;20020;-79
2022/10/23 06:21:17;;;;;;;7.53;6.47;;;;;;;9.65;100.00;101188.44;6194027;23;20148;-79
2022/10/23 06:23:46;;;;;;;15.30;6.55;;;;;;;9.64;100.00;101182.38;6193472;23;20492;-79
2022/10/23 06:26:30;;;;;;;8.23;6.43;;;;;;;9.66;100.00;101188.03;6193874;23;20017;-79
2022/10/23 06:29:08;;;;;;;8.05;6.53;;;;;;;9.65;100.00;101175.91;6193815;23;20017;-79
2022/10/23 06:31:36;;;;;;;9.05;6.32;;;;;;;9.65;100.00;101175.91;6193461;23;20025;-79
2022/10/23 06:34:04;;;;;;;6.40;5.82;;;;;;;9.66;100.00;101182.69;6193818;23;20067;-79
2022/10/23 06:36:31;;;;;;;11.05;6.55;;;;;;;9.66;100.00;101174.72;6169672;23;20021;-87
2022/10/23 06:39:06;;;;;;;8.50;6.20;;;;;;;9.67;100.00;101165.59;6194085;23;20021;-80
2022/10/23 06:41:51;;;;;;;11.45;6.20;;;;;;;9.68;100.00;101172.41;6194449;23;20252;-82
2022/10/23 06:44:37;;;;;;;8.40;5.78;;;;;;;9.70;100.00;101178.03;6219945;23;20057;-80
2022/10/23 06:47:09;;;;;;;9.02;6.28;;;;;;;9.73;100.00;101167.72;6193510;23;20343;-79
2022/10/23 06:49:55;;;;;;;8.55;6.00;;;;;;;9.74;100.00;101159.34;6220661;23;20459;-80
2022/10/23 06:52:21;;;;;;;7.07;6.05;;;;;;;9.76;100.00;101158.91;6220393;23;20018;-80
2022/10/23 06:55:09;;;;;;;7.78;6.43;;;;;;;9.79;100.00;101155.41;6194744;23;20529;-79
2022/10/23 06:57:36;;;;;;;9.30;6.32;;;;;;;9.81;100.00;101150.41;6194718;23;20017;-78
2022/10/23 07:00:04;;;;;;;11.00;6.47;;;;;;;9.84;100.00;101152.22;6194532;23;20021;-78
2022/10/23 07:02:40;;;;;;;9.95;6.20;;;;;;;9.87;100.00;101148.72;6194394;23;20018;-78
2022/10/23 07:05:07;;;;;;;7.57;6.30;;;;;;;9.90;100.00;101158.50;6194482;23;20029;-79
2022/10/23 07:07:38;;;;;;;9.88;6.65;;;;;;;9.93;100.00;101147.03;6195563;23;20024;-83
2022/10/23 07:10:06;;;;;;;9.73;6.53;;;;;;;9.95;100.00;101150.00;6194661;23;20016;-81
2022/10/23 07:12:47;;;;;;;6.82;5.82;;;;;;;9.98;100.00;101151.81;6194773;23;20052;-79
2022/10/23 07:15:43;;;;;;;11.48;7.10;;;;;;;10.04;100.00;101168.72;6188302;23;20138;-80
2022/10/23 07:18:15;;;;;;;13.20;7.05;;;;;;;10.08;100.00;101157.97;6194863;23;20020;-80
2022/10/23 07:21:05;;;;;;;12.15;6.88;;;;;;;10.12;100.00;101150.63;6099643;23;20473;-81
2022/10/23 07:23:32;;;;;;;11.98;6.68;;;;;;;10.16;100.00;101154.69;6074959;23;20491;-81
2022/10/23 07:26:17;;;;;;;7.65;6.55;;;;;;;10.21;100.00;101154.19;6075325;23;20469;-82
2022/10/23 07:28:47;;;;;;;9.77;7.03;;;;;;;10.26;100.00;101150.25;6074017;23;20026;-79
2022/10/23 07:31:18;;;;;;;10.45;7.07;;;;;;;10.31;100.00;101145.13;6074324;23;20070;-79
2022/10/23 07:34:09;;;;;;;14.73;8.07;;;;;;;10.38;100.00;101146.84;6098873;23;20041;-78
2022/10/23 07:36:36;;;;;;;10.05;7.32;;;;;;;10.44;100.00;101145.09;6073117;23;20059;-78
2022/10/23 07:39:04;;;;;;;9.85;8.00;;;;;;;10.49;100.00;101141.16;6073818;23;20015;-79
2022/10/23 07:41:34;;;;;;;12.98;7.18;;;;;;;10.53;100.00;101137.22;6073911;23;20046;-79
2022/10/23 07:44:00;;;;;;;13.05;7.93;;;;;;;10.59;100.00;101138.16;6074227;23;20493;-82
2022/10/23 07:46:27;;;;;;;13.32;7.50;;;;;;;10.68;100.00;101137.50;6073621;23;20477;-82
2022/10/23 07:48:53;;;;;;;10.93;7.78;;;;;;;10.77;100.00;101140.25;6074390;23;20026;-81
2022/10/23 07:51:20;;;;;;;14.70;7.40;;;;;;;10.83;100.00;101141.19;6073299;23;20022;-81
2022/10/23 07:53:53;;;;;;;8.18;7.38;;;;;;;10.90;100.00;101135.63;6051295;23;20110;-82
2022/10/23 07:56:59;;;;;;;10.15;6.72;;;;;;;11.00;100.00;101125.78;6074748;23;20030;-80
2022/10/23 07:59:37;;;;;;;14.27;7.13;;;;;;;11.07;100.00;101117.56;6188443;23;20448;-81
2022/10/23 08:02:12;;;;;;;17.30;7.63;;;;;;;11.16;100.00;101116.88;6188609;23;20092;-81
2022/10/23 08:04:40;;;;;;;13.23;6.97;;;;;;;11.24;100.00;101113.53;6187871;23;20849;-81
2022/10/23 08:07:18;;;;;;;12.05;6.93;;;;;;;11.34;100.00;101119.66;6187447;23;20028;-80
2022/10/23 08:09:46;;;;;;;13.13;7.18;;;;;;;11.42;100.00;101115.56;6188025;23;20048;-80
2022/10/23 08:12:13;;;;;;;12.70;7.32;;;;;;;11.50;100.00;101111.47;6188196;23;20473;-79
2022/10/23 08:14:39;;;;;;;16.33;6.95;;;;;;;11.59;100.00;101118.78;6187622;23;20057;-80
2022/10/23 08:17:08;;;;;;;7.90;6.45;;;;;;;11.67;100.00;101115.41;6188327;23;20049;-80
2022/10/23 08:20:12;;;;;;;9.43;6.13;;;;;;;11.79;100.00;101110.44;6173474;23;20096;-80
2022/10/23 08:22:41;;;;;;;14.80;6.90;;;;;;;11.85;100.00;101111.38;6189693;23;20079;-80
2022/10/23 08:25:09;;;;;;;13.25;6.38;;;;;;;11.92;100.00;101109.19;6188145;23;20040;-80
2022/10/23 08:27:37;;;;;;;9.40;5.85;;;;;;;12.01;100.00;101111.09;6188826;23;20017;-80
2022/10/23 08:30:04;;;;;;;8.30;6.30;;;;;;;12.05;100.00;101113.66;6187229;23;20076;-80
2022/10/23 08:32:31;;;;;;;10.80;5.95;;;;;;;12.12;100.00;101114.13;6187864;23;20478;-79
2022/10/23 08:34:59;;;;;;;9.02;6.38;;;;;;;12.16;100.00;101103.31;6187487;23;20465;-79
2022/10/23 08:37:28;;;;;;;8.48;5.95;;;;;;;12.23;100.00;101097.69;6187481;23;20017;-80
2022/10/23 08:39:55;;;;;;;10.65;5.55;;;;;;;12.29;100.00;101094.00;6188178;23;20073;-79
2022/10/23 08:42:47;;;;;;;7.93;5.22;;;;;;;12.37;100.00;101083.03;6188146;23;20076;-81
2022/10/23 08:45:29;;;;;;;10.73;5.30;;;;;;;12.45;100.00;101084.22;6187806;23;20029;-78
2022/10/23 08:48:20;;;;;;;12.02;5.20;;;;;;;12.50;100.00;101080.97;6187447;23;20045;-81
2022/10/23 08:51:26;;;;;;;11.68;5.60;;;;;;;12.56;100.00;101074.59;6189424;23;20025;-79
2022/10/23 08:54:05;;;;;;;5.82;5.20;;;;;;;12.64;100.00;101075.78;6189671;23;20014;-79
2022/10/23 08:56:35;;;;;;;6.80;5.60;;;;;;;12.69;100.00;101061.84;6189249;23;20045;-78
2022/10/23 08:59:18;;;;;;;11.88;5.68;;;;;;;12.76;100.00;101066.16;6189664;23;20018;-79
2022/10/23 09:02:25;;;;;;;8.73;5.32;;;;;;;12.85;100.00;101071.47;6189437;23;20085;-78
2022/10/23 09:04:54;;;;;;;6.63;5.05;;;;;;;12.93;100.00;101071.91;6183815;23;20433;-79
2022/10/23 09:07:35;;;;;;;6.70;4.88;;;;;;;13.01;100.00;101063.16;6189307;23;20044;-79
2022/10/23 09:10:24;;;;;;;6.55;4.95;;;;;;;13.14;100.00;101056.91;6189991;23;20048;-79
2022/10/23 09:12:50;;;;;;;6.70;4.65;;;;;;;13.21;100.00;101046.63;6188044;23;20017;-88
2022/10/23 09:15:23;;;;;;;10.00;4.88;;;;;;;13.29;100.00;101047.06;6189385;23;20096;-83
2022/10/23 09:17:58;;;;;;;8.65;5.32;;;;;;;13.34;100.00;101039.19;6189157;23;20146;-80
2022/10/23 09:20:33;;;;;;;7.18;6.50;;;;;;;13.41;100.00;101042.72;6189506;23;20013;-80
2022/10/23 09:23:06;;;;;;;11.52;6.82;;;;;;;13.48;100.00;101031.72;6189493;23;20041;-84
2022/10/23 09:25:37;;;;;;;8.05;4.70;;;;;;;13.51;100.00;101042.25;6189335;23;20432;-78
2022/10/23 09:28:04;;;;;;;8.65;4.78;;;;;;;13.52;100.00;101030.34;6189275;23;20072;-79
2022/10/23 09:30:31;;;;;;;8.43;5.00;;;;;;;13.55;100.00;101032.13;6190295;23;20452;-78
2022/10/23 09:32:59;;;;;;;12.88;5.03;;;;;;;13.57;100.00;101029.00;6190300;23;20021;-79
2022/10/23 09:35:29;;;;;;;7.97;4.78;;;;;;;13.60;100.00;101030.75;6188553;23;20022;-79
2022/10/23 09:37:56;;;;;;;6.18;4.40;;;;;;;13.60;100.00;101028.81;6190857;23;20022;-79
2022/10/23 09:40:32;;;;;;;5.68;4.90;;;;;;;13.62;100.00;101023.75;6190846;23;20101;-78
2022/10/23 09:43:02;;;;;;;7.75;4.75;;;;;;;13.62;100.00;101023.00;6191307;23;20065;-77
2022/10/23 09:45:32;;;;;;;8.93;4.40;;;;;;;13.62;100.00;101021.09;6188489;23;20017;-78
2022/10/23 09:48:16;;;;;;;7.25;4.55;;;;;;;13.63;100.00;101009.19;6188457;23;20022;-86
2022/10/23 09:51:16;;;;;;;7.38;4.25;;;;;;;13.64;100.00;101013.34;6190214;23;20048;-77
2022/10/23 09:53:53;;;;;;;6.10;4.47;;;;;;;13.66;100.00;101007.53;6188100;23;20109;-81
2022/10/23 09:56:24;;;;;;;6.63;4.45;;;;;;;13.69;100.00;101006.63;6191126;23;20487;-81
2022/10/23 09:59:03;;;;;;;7.05;4.18;;;;;;;13.76;100.00;101002.88;6190914;23;20104;-79
2022/10/23 10:01:43;;;;;;;4.78;4.38;;;;;;;13.79;100.00;101004.66;6188119;23;20013;-80
2022/10/23 10:04:38;;;;;;;8.20;4.20;;;;;;;13.86;100.00;101004.31;6191816;23;20021;-82
2022/10/23 10:07:17;;;;;;;6.15;4.05;;;;;;;13.90;100.00;100994.94;6188701;23;20100;-78
2022/10/23 10:09:43;;;;;;;10.88;4.68;;;;;;;13.94;100.00;100987.47;6190062;23;20052;-82
2022/10/23 10:12:28;;;;;;;10.32;4.65;;;;;;;14.00;100.00;101003.63;6190981;23;20044;-81
2022/10/23 10:15:34;;;;;;;8.35;4.22;;;;;;;14.06;100.00;100987.69;6163824;23;20045;-79
2022/10/23 10:18:19;;;;;;;6.25;4.07;;;;;;;14.12;100.00;100970.53;6192263;23;20025;-84
2022/10/23 10:20:59;;;;;;;14.43;3.78;;;;;;;14.17;100.00;100975.25;6190851;23;20017;-82
2022/10/23 10:23:33;;;;;;;5.32;3.95;;;;;;;14.20;100.00;100976.28;6190627;23;20046;-82
2022/10/23 10:26:32;;;;;;;7.55;4.05;;;;;;;14.24;99.54;100972.22;6189232;23;20026;-83
2022/10/23 10:29:12;;;;;;;7.93;3.97;;;;;;;14.28;99.16;100959.41;6189401;23;20096;-82
2022/10/23 10:31:57;;;;;;;8.63;4.15;;;;;;;14.31;99.04;100953.13;6190045;23;20025;-82
2022/10/23 10:34:32;;;;;;;9.57;4.00;;;;;;;14.35;98.94;100958.31;6190914;23;20092;-82
2022/10/23 10:37:33;;;;;;;5.78;3.60;;;;;;;14.39;98.68;100934.78;6190679;23;20490;-83
2022/10/23 10:40:08;;;;;;;5.18;3.50;;;;;;;14.43;98.33;100938.00;6154011;23;20519;-90
2022/10/23 10:43:05;;;;;;;5.35;3.80;;;;;;;14.47;98.09;100935.16;6191506;23;20092;-85
2022/10/23 10:45:37;;;;;;;7.00;3.50;;;;;;;14.51;97.67;100936.44;6207839;23;20021;-84
2022/10/23 10:48:09;;;;;;;;;;;;;;;14.57;98.14;100923.16;6194725;23;20075;-86
2022/10/23 10:51:20;;;;;;;3.90;3.55;;;;;;;14.61;97.10;100913.00;6159079;23;19926;-79
2022/10/23 10:53:52;;;;;;;5.85;3.45;;;;;;;14.64;96.75;100901.34;6220870;23;20024;-80
2022/10/23 10:56:24;;;;;;;4.32;3.63;;;;;;;14.67;96.43;100890.44;6220635;23;20096;-81
2022/10/23 10:58:59;;;;;;;5.28;3.22;;;;;;;14.73;96.08;100887.13;6219686;23;20053;-83
2022/10/23 11:01:44;;;;;;;7.72;3.10;;;;;;;14.76;96.49;100880.84;6193530;23;20567;-80
2022/10/23 11:04:45;;;;;;;12.32;3.50;;;;;;;14.82;96.16;100892.34;6220454;23;20017;-80
2022/10/23 11:07:16;;;;;;;5.28;3.53;;;;;;;14.85;95.81;100891.44;6145995;23;20021;-81
2022/10/23 11:09:43;;;;;;;7.57;3.53;;;;;;;14.90;95.16;100893.47;6219925;23;20056;-84
2022/10/23 11:12:20;;;;;;;6.78;4.05;;;;;;;14.98;95.44;100881.16;6220647;23;20506;-82
2022/10/23 11:14:48;;;;;;;7.20;3.63;;;;;;;15.04;94.72;100879.28;6193090;23;20096;-82
2022/10/23 11:17:23;;;;;;;5.75;3.90;;;;;;;15.06;94.07;100882.25;6193425;23;20021;-83
2022/10/23 11:20:04;;;;;;;6.70;3.72;;;;;;;15.08;94.33;100871.06;6220519;23;20045;-79
2022/10/23 11:23:00;;;;;;;10.75;3.70;;;;;;;15.11;94.91;100872.81;6219363;23;20096;-80
2022/10/23 11:25:52;;;;;;;4.22;3.60;;;;;;;15.14;95.25;100871.88;6219703;23;20096;-79
2022/10/23 11:28:36;;;;;;;10.65;3.78;;;;;;;15.19;94.40;100866.59;6218894;23;20100;-80
2022/10/23 11:31:34;;;;;;;7.30;3.50;;;;;;;15.29;94.35;100856.44;6194491;23;20021;-80
2022/10/23 11:34:06;;;;;;;6.70;3.58;;;;;;;15.37;93.83;100849.47;6220524;23;20017;-78
2022/10/23 11:36:48;;;;;;;7.65;3.45;;;;;;;15.47;93.71;100837.41;6193333;23;20120;-78
2022/10/23 11:39:20;;;;;;;6.53;3.40;;;;;;;15.58;92.95;100840.25;6220088;23;20087;-78
2022/10/23 11:42:03;;;;;;;6.65;3.10;;;;;;;15.67;92.77;100837.41;6220130;23;20103;-78
2022/10/23 11:44:48;;;;;;;4.05;3.30;;;;;;;15.80;92.18;100826.31;6218537;23;20013;-78
2022/10/23 11:47:30;;;;;;;4.03;3.25;;;;;;;15.91;91.67;100821.06;6193165;23;20021;-78
2022/10/23 11:50:06;;;;;;;8.55;3.13;;;;;;;16.01;90.98;100813.56;6219914;23;20088;-78
2022/10/23 11:53:03;;;;;;;5.18;3.63;;;;;;;16.09;90.76;100808.53;6220027;23;20036;-78
2022/10/23 11:56:05;;;;;;;4.32;3.35;;;;;;;16.16;89.82;100814.22;6219847;23;20037;-78